createdAt,value
2017-05-20T00:00:33.530Z,0
2017-05-20T00:01:33.462Z,0
2017-05-20T00:02:33.257Z,0
2017-05-20T00:03:33.227Z,0
2017-05-20T00:04:33.526Z,0
2017-05-20T00:05:33.241Z,0
2017-05-20T00:06:33.259Z,0
2017-05-20T00:07:33.266Z,0
2017-05-20T00:08:33.329Z,0
2017-05-20T00:09:33.377Z,0
2017-05-20T00:10:33.502Z,0
2017-05-20T00:11:33.411Z,0
2017-05-20T00:12:33.475Z,0
2017-05-20T00:13:33.496Z,0
2017-05-20T00:14:33.515Z,0
2017-05-20T00:15:33.593Z,0
2017-05-20T00:16:33.619Z,0
2017-05-20T00:17:33.666Z,0
2017-05-20T00:18:33.710Z,0
2017-05-20T00:19:33.929Z,0
2017-05-20T00:20:34.045Z,0
2017-05-20T00:21:33.800Z,0
2017-05-20T00:22:33.843Z,0
2017-05-20T00:23:34.211Z,0
2017-05-20T00:24:34.338Z,0
2017-05-20T00:25:34.040Z,0
2017-05-20T00:26:33.977Z,0
2017-05-20T00:27:34.002Z,0
2017-05-20T00:28:34.044Z,0
2017-05-20T00:29:34.090Z,0
2017-05-20T00:30:34.257Z,0
2017-05-20T00:31:34.153Z,0
2017-05-20T00:32:34.250Z,0
2017-05-20T00:33:34.213Z,0
2017-05-20T00:34:34.454Z,0
2017-05-20T00:35:34.630Z,0
2017-05-20T00:36:34.312Z,0
2017-05-20T00:37:34.385Z,0
2017-05-20T00:38:34.428Z,0
2017-05-20T00:39:34.412Z,0
2017-05-20T00:40:34.464Z,0
2017-05-20T00:41:34.477Z,0
2017-05-20T00:42:34.553Z,0
2017-05-20T00:43:34.587Z,0
2017-05-20T00:44:34.603Z,0
2017-05-20T00:45:34.656Z,0
2017-05-20T00:46:34.737Z,0
2017-05-20T00:47:34.913Z,0
2017-05-20T00:48:34.755Z,0
2017-05-20T00:49:34.786Z,0
2017-05-20T00:50:34.811Z,0
2017-05-20T00:51:34.865Z,0
2017-05-20T00:52:34.915Z,0
2017-05-20T00:53:34.927Z,0
2017-05-20T00:54:34.955Z,0
2017-05-20T00:55:35.014Z,0
2017-05-20T00:56:35.052Z,0
2017-05-20T00:57:35.055Z,0
2017-05-20T00:58:35.115Z,0
2017-05-20T00:59:35.137Z,0
2017-05-20T01:00:35.180Z,0
2017-05-20T01:01:35.196Z,0
2017-05-20T01:02:35.346Z,0
2017-05-20T01:03:35.371Z,0
2017-05-20T01:04:35.433Z,0
2017-05-20T01:05:35.387Z,0
2017-05-20T01:06:35.388Z,0
2017-05-20T01:07:35.376Z,0
2017-05-20T01:08:35.458Z,0
2017-05-20T01:09:35.503Z,0
2017-05-20T01:10:35.528Z,0
2017-05-20T01:11:35.542Z,0
2017-05-20T01:12:35.588Z,0
2017-05-20T01:13:35.606Z,0
2017-05-20T01:14:35.687Z,0
2017-05-20T01:15:35.672Z,0
2017-05-20T01:16:35.726Z,0
2017-05-20T01:17:35.766Z,0
2017-05-20T01:18:35.792Z,0
2017-05-20T01:19:35.823Z,0
2017-05-20T01:20:37.112Z,0
2017-05-20T01:21:35.907Z,0
2017-05-20T01:22:35.925Z,0
2017-05-20T01:23:36.024Z,0
2017-05-20T01:24:36.005Z,0
2017-05-20T01:25:36.054Z,0
2017-05-20T01:26:36.090Z,0
2017-05-20T01:27:36.134Z,0
2017-05-20T01:28:36.178Z,0
2017-05-20T01:29:36.216Z,0
2017-05-20T01:30:36.187Z,0
2017-05-20T01:31:36.615Z,0
2017-05-20T01:32:36.291Z,0
2017-05-20T01:33:36.327Z,0
2017-05-20T01:34:36.354Z,0
2017-05-20T01:35:36.618Z,0
2017-05-20T01:36:36.463Z,0
2017-05-20T01:37:36.838Z,0
2017-05-20T01:38:36.509Z,0
2017-05-20T01:39:36.536Z,0
2017-05-20T01:40:36.581Z,0
2017-05-20T01:41:36.591Z,0
2017-05-20T01:42:36.661Z,0
2017-05-20T01:43:37.407Z,0
2017-05-20T01:44:36.678Z,0
2017-05-20T01:45:36.736Z,0
2017-05-20T01:46:37.142Z,0
2017-05-20T01:47:36.779Z,0
2017-05-20T01:48:36.864Z,0
2017-05-20T01:49:36.890Z,0
2017-05-20T01:50:36.927Z,0
2017-05-20T01:51:36.960Z,0
2017-05-20T01:52:37.010Z,0
2017-05-20T01:53:37.042Z,0
2017-05-20T01:54:37.043Z,0
2017-05-20T01:55:37.198Z,0
2017-05-20T01:56:37.139Z,0
2017-05-20T01:57:37.192Z,0
2017-05-20T01:58:37.380Z,0
2017-05-20T01:59:37.623Z,0
2017-05-20T02:00:37.556Z,0
2017-05-20T02:01:37.288Z,0
2017-05-20T02:02:37.401Z,0
2017-05-20T02:03:37.378Z,0
2017-05-20T02:04:37.659Z,0
2017-05-20T02:05:37.660Z,0
2017-05-20T02:06:37.490Z,0
2017-05-20T02:07:37.882Z,0
2017-05-20T02:08:37.587Z,0
2017-05-20T02:09:37.981Z,0
2017-05-20T02:10:38.516Z,0
2017-05-20T02:11:37.675Z,0
2017-05-20T02:12:37.757Z,0
2017-05-20T02:13:37.716Z,0
2017-05-20T02:14:37.797Z,0
2017-05-20T02:15:37.830Z,0
2017-05-20T02:16:37.840Z,0
2017-05-20T02:17:38.231Z,0
2017-05-20T02:18:37.927Z,0
2017-05-20T02:19:37.969Z,0
2017-05-20T02:20:38.140Z,0
2017-05-20T02:21:38.082Z,0
2017-05-20T02:22:38.066Z,0
2017-05-20T02:23:38.084Z,0
2017-05-20T02:24:38.131Z,0
2017-05-20T02:25:38.141Z,0
2017-05-20T02:26:38.205Z,0
2017-05-20T02:27:38.549Z,0
2017-05-20T02:28:38.233Z,0
2017-05-20T02:29:38.428Z,0
2017-05-20T02:30:38.428Z,0
2017-05-20T02:31:38.350Z,0
2017-05-20T02:32:38.398Z,0
2017-05-20T02:33:38.452Z,0
2017-05-20T02:34:38.481Z,0
2017-05-20T02:35:38.616Z,0
2017-05-20T02:36:38.560Z,0
2017-05-20T02:37:38.595Z,0
2017-05-20T02:38:38.594Z,0
2017-05-20T02:39:38.660Z,0
2017-05-20T02:40:38.691Z,0
2017-05-20T02:41:38.717Z,0
2017-05-20T02:42:38.758Z,0
2017-05-20T02:43:39.515Z,0
2017-05-20T02:44:39.195Z,0
2017-05-20T02:45:39.215Z,0
2017-05-20T02:46:38.907Z,0
2017-05-20T02:47:38.939Z,0
2017-05-20T02:48:39.292Z,0
2017-05-20T02:49:39.131Z,0
2017-05-20T02:50:39.125Z,0
2017-05-20T02:51:39.144Z,0
2017-05-20T02:52:39.160Z,0
2017-05-20T02:53:39.150Z,0
2017-05-20T02:54:39.131Z,0
2017-05-20T02:55:39.209Z,0
2017-05-20T02:56:39.282Z,0
2017-05-20T02:57:39.284Z,0
2017-05-20T02:58:39.331Z,0
2017-05-20T02:59:39.832Z,0
2017-05-20T03:00:39.365Z,0
2017-05-20T03:01:39.416Z,0
2017-05-20T03:02:39.479Z,0
2017-05-20T03:03:39.483Z,0
2017-05-20T03:04:39.585Z,0
2017-05-20T03:05:39.608Z,0
2017-05-20T03:06:39.599Z,0
2017-05-20T03:07:39.701Z,0
2017-05-20T03:08:39.673Z,0
2017-05-20T03:09:39.682Z,0
2017-05-20T03:10:39.748Z,0
2017-05-20T03:11:39.730Z,0
2017-05-20T03:12:40.408Z,0
2017-05-20T03:13:40.728Z,0
2017-05-20T03:14:39.874Z,0
2017-05-20T03:15:39.883Z,0
2017-05-20T03:16:39.949Z,0
2017-05-20T03:17:39.979Z,0
2017-05-20T03:18:40.010Z,0
2017-05-20T03:19:40.059Z,0
2017-05-20T03:20:40.090Z,0
2017-05-20T03:21:40.124Z,0
2017-05-20T03:22:40.142Z,0
2017-05-20T03:23:40.169Z,0
2017-05-20T03:24:40.190Z,0
2017-05-20T03:25:40.249Z,0
2017-05-20T03:26:40.279Z,0
2017-05-20T03:27:40.402Z,0
2017-05-20T03:28:40.353Z,0
2017-05-20T03:29:40.393Z,0
2017-05-20T03:30:40.885Z,0
2017-05-20T03:31:40.468Z,0
2017-05-20T03:32:40.505Z,0
2017-05-20T03:33:40.501Z,0
2017-05-20T03:34:40.567Z,0
2017-05-20T03:35:40.590Z,0
2017-05-20T03:36:40.601Z,0
2017-05-20T03:37:40.654Z,0
2017-05-20T03:38:40.700Z,0
2017-05-20T03:39:40.699Z,0
2017-05-20T03:40:40.771Z,0
2017-05-20T03:41:41.166Z,5
2017-05-20T03:42:40.867Z,5
2017-05-20T03:43:40.874Z,5
2017-05-20T03:44:40.902Z,5
2017-05-20T03:45:40.903Z,5
2017-05-20T03:46:41.539Z,5
2017-05-20T03:47:41.373Z,5
2017-05-20T03:48:41.050Z,5
2017-05-20T03:49:41.080Z,5
2017-05-20T03:50:41.127Z,5
2017-05-20T03:51:41.199Z,5
2017-05-20T03:52:41.499Z,5
2017-05-20T03:53:41.565Z,5
2017-05-20T03:54:41.609Z,5
2017-05-20T03:55:41.283Z,10
2017-05-20T03:56:41.327Z,10
2017-05-20T03:57:41.421Z,5
2017-05-20T03:58:41.372Z,10
2017-05-20T03:59:41.425Z,15
2017-05-20T04:00:41.469Z,15
2017-05-20T04:01:41.471Z,15
2017-05-20T04:02:41.754Z,15
2017-05-20T04:03:41.576Z,15
2017-05-20T04:04:41.568Z,15
2017-05-20T04:05:41.627Z,15
2017-05-20T04:06:41.669Z,15
2017-05-20T04:07:41.703Z,15
2017-05-20T04:08:41.697Z,15
2017-05-20T04:09:41.779Z,20
2017-05-20T04:10:41.806Z,25
2017-05-20T04:11:41.837Z,25
2017-05-20T04:12:41.862Z,30
2017-05-20T04:13:41.921Z,35
2017-05-20T04:14:41.928Z,30
2017-05-20T04:15:41.971Z,35
2017-05-20T04:16:42.002Z,40
2017-05-20T04:17:42.030Z,40
2017-05-20T04:18:42.085Z,35
2017-05-20T04:19:42.104Z,35
2017-05-20T04:20:42.147Z,40
2017-05-20T04:21:42.225Z,40
2017-05-20T04:22:42.194Z,45
2017-05-20T04:23:42.245Z,50
2017-05-20T04:24:42.267Z,45
2017-05-20T04:25:42.284Z,50
2017-05-20T04:26:42.366Z,50
2017-05-20T04:27:42.393Z,45
2017-05-20T04:28:42.429Z,40
2017-05-20T04:29:42.432Z,50
2017-05-20T04:30:42.478Z,60
2017-05-20T04:31:42.546Z,60
2017-05-20T04:32:42.544Z,45
2017-05-20T04:33:42.597Z,55
2017-05-20T04:34:42.612Z,85
2017-05-20T04:35:42.705Z,85
2017-05-20T04:36:42.695Z,85
2017-05-20T04:37:42.816Z,95
2017-05-20T04:38:42.747Z,95
2017-05-20T04:39:42.791Z,85
2017-05-20T04:40:42.837Z,85
2017-05-20T04:41:42.861Z,75
2017-05-20T04:42:42.901Z,90
2017-05-20T04:43:42.925Z,80
2017-05-20T04:44:42.955Z,70
2017-05-20T04:45:42.970Z,75
2017-05-20T04:46:43.043Z,75
2017-05-20T04:47:43.073Z,80
2017-05-20T04:48:43.078Z,80
2017-05-20T04:49:43.119Z,80
2017-05-20T04:50:43.171Z,95
2017-05-20T04:51:43.218Z,95
2017-05-20T04:52:43.235Z,100
2017-05-20T04:53:43.297Z,110
2017-05-20T04:54:43.322Z,100
2017-05-20T04:55:43.347Z,110
2017-05-20T04:56:43.381Z,105
2017-05-20T04:57:43.424Z,100
2017-05-20T04:58:43.424Z,100
2017-05-20T04:59:43.478Z,95
2017-05-20T05:00:43.512Z,100
2017-05-20T05:01:43.563Z,105
2017-05-20T05:02:43.602Z,130
2017-05-20T05:03:43.607Z,115
2017-05-20T05:04:43.622Z,155
2017-05-20T05:05:43.620Z,190
2017-05-20T05:06:43.723Z,165
2017-05-20T05:07:43.740Z,155
2017-05-20T05:08:43.763Z,125
2017-05-20T05:09:43.821Z,135
2017-05-20T05:10:43.852Z,100
2017-05-20T05:11:43.878Z,80
2017-05-20T05:12:43.955Z,85
2017-05-20T05:13:43.959Z,145
2017-05-20T05:14:43.989Z,135
2017-05-20T05:15:44.026Z,140
2017-05-20T05:16:44.067Z,130
2017-05-20T05:17:44.115Z,150
2017-05-20T05:18:44.149Z,135
2017-05-20T05:19:44.166Z,110
2017-05-20T05:20:44.222Z,130
2017-05-20T05:21:44.247Z,140
2017-05-20T05:22:44.251Z,115
2017-05-20T05:23:44.298Z,120
2017-05-20T05:24:44.328Z,170
2017-05-20T05:25:44.383Z,215
2017-05-20T05:26:44.392Z,220
2017-05-20T05:27:44.445Z,215
2017-05-20T05:28:44.490Z,235
2017-05-20T05:29:44.511Z,260
2017-05-20T05:30:44.542Z,285
2017-05-20T05:31:44.604Z,215
2017-05-20T05:32:44.605Z,200
2017-05-20T05:33:44.612Z,265
2017-05-20T05:34:44.700Z,240
2017-05-20T05:35:44.734Z,210
2017-05-20T05:36:44.751Z,240
2017-05-20T05:37:44.802Z,255
2017-05-20T05:38:44.842Z,220
2017-05-20T05:39:44.861Z,200
2017-05-20T05:40:44.896Z,180
2017-05-20T05:41:44.933Z,210
2017-05-20T05:42:44.982Z,215
2017-05-20T05:43:44.987Z,165
2017-05-20T05:44:45.027Z,215
2017-05-20T05:45:45.024Z,195
2017-05-20T05:46:45.101Z,180
2017-05-20T05:47:45.129Z,205
2017-05-20T05:48:45.207Z,230
2017-05-20T05:49:45.239Z,235
2017-05-20T05:50:45.268Z,230
2017-05-20T05:51:45.306Z,190
2017-05-20T05:52:45.329Z,190
2017-05-20T05:53:45.337Z,210
2017-05-20T05:54:45.410Z,270
2017-05-20T05:55:45.435Z,240
2017-05-20T05:56:45.463Z,190
2017-05-20T05:57:45.494Z,190
2017-05-20T05:58:45.535Z,220
2017-05-20T05:59:45.570Z,175
2017-05-20T06:00:45.615Z,210
2017-05-20T06:01:45.656Z,165
2017-05-20T06:02:45.675Z,175
2017-05-20T06:03:45.703Z,155
2017-05-20T06:04:45.761Z,165
2017-05-20T06:05:45.791Z,205
2017-05-20T06:06:45.802Z,205
2017-05-20T06:07:45.821Z,300
2017-05-20T06:08:45.877Z,250
2017-05-20T06:09:45.913Z,265
2017-05-20T06:10:45.963Z,255
2017-05-20T06:11:46.000Z,290
2017-05-20T06:12:46.031Z,390
2017-05-20T06:13:46.132Z,300
2017-05-20T06:14:46.096Z,265
2017-05-20T06:15:46.133Z,235
2017-05-20T06:16:46.162Z,215
2017-05-20T06:17:46.214Z,305
2017-05-20T06:18:46.253Z,265
2017-05-20T06:19:46.261Z,235
2017-05-20T06:20:46.288Z,210
2017-05-20T06:21:46.362Z,260
2017-05-20T06:22:46.397Z,325
2017-05-20T06:23:46.428Z,415
2017-05-20T06:24:46.434Z,455
2017-05-20T06:25:46.480Z,355
2017-05-20T06:26:46.524Z,310
2017-05-20T06:27:46.534Z,405
2017-05-20T06:28:46.596Z,400
2017-05-20T06:29:46.633Z,330
2017-05-20T06:30:46.625Z,330
2017-05-20T06:31:46.702Z,380
2017-05-20T06:32:46.745Z,400
2017-05-20T06:33:46.778Z,360
2017-05-20T06:34:46.791Z,340
2017-05-20T06:35:46.857Z,285
2017-05-20T06:36:46.875Z,390
2017-05-20T06:37:46.931Z,500
2017-05-20T06:38:46.956Z,685
2017-05-20T06:39:46.979Z,445
2017-05-20T06:40:47.016Z,345
2017-05-20T06:41:47.023Z,245
2017-05-20T06:42:47.112Z,260
2017-05-20T06:43:47.139Z,400
2017-05-20T06:44:47.163Z,310
2017-05-20T06:45:47.184Z,265
2017-05-20T06:46:47.233Z,285
2017-05-20T06:47:47.281Z,500
2017-05-20T06:48:47.295Z,995
2017-05-20T06:49:47.325Z,530
2017-05-20T06:50:47.383Z,325
2017-05-20T06:51:47.392Z,335
2017-05-20T06:52:47.524Z,330
2017-05-20T06:53:47.498Z,395
2017-05-20T06:54:47.530Z,335
2017-05-20T06:55:47.513Z,375
2017-05-20T06:56:47.607Z,315
2017-05-20T06:57:47.646Z,225
2017-05-20T06:58:47.687Z,350
2017-05-20T06:59:47.705Z,245
2017-05-20T07:00:47.753Z,170
2017-05-20T07:01:47.785Z,175
2017-05-20T07:02:47.839Z,270
2017-05-20T07:03:47.841Z,290
2017-05-20T07:04:47.884Z,290
2017-05-20T07:05:47.939Z,295
2017-05-20T07:06:47.958Z,330
2017-05-20T07:07:48.015Z,325
2017-05-20T07:08:48.035Z,305
2017-05-20T07:09:48.037Z,355
2017-05-20T07:10:48.252Z,390
2017-05-20T07:11:48.128Z,250
2017-05-20T07:12:48.179Z,285
2017-05-20T07:13:48.230Z,400
2017-05-20T07:14:48.515Z,420
2017-05-20T07:15:48.306Z,315
2017-05-20T07:16:48.532Z,450
2017-05-20T07:17:48.338Z,560
2017-05-20T07:18:48.384Z,595
2017-05-20T07:19:48.433Z,510
2017-05-20T07:20:48.471Z,525
2017-05-20T07:21:48.503Z,600
2017-05-20T07:22:48.527Z,735
2017-05-20T07:23:48.574Z,2220
2017-05-20T07:24:48.614Z,2465
2017-05-20T07:25:48.638Z,1100
2017-05-20T07:26:48.692Z,1390
2017-05-20T07:27:48.738Z,2435
2017-05-20T07:28:48.761Z,2390
2017-05-20T07:29:48.812Z,2405
2017-05-20T07:30:48.838Z,2435
2017-05-20T07:31:48.882Z,2475
2017-05-20T07:32:48.930Z,2290
2017-05-20T07:33:48.942Z,1495
2017-05-20T07:34:49.222Z,2305
2017-05-20T07:35:49.039Z,640
2017-05-20T07:36:49.303Z,1675
2017-05-20T07:37:49.279Z,2485
2017-05-20T07:38:49.168Z,700
2017-05-20T07:39:49.192Z,2490
2017-05-20T07:40:49.241Z,660
2017-05-20T07:41:49.335Z,715
2017-05-20T07:42:49.331Z,1765
2017-05-20T07:43:49.361Z,710
2017-05-20T07:44:49.412Z,2340
2017-05-20T07:45:49.436Z,2325
2017-05-20T07:46:49.509Z,805
2017-05-20T07:47:49.508Z,1915
2017-05-20T07:48:49.551Z,2085
2017-05-20T07:49:49.656Z,2650
2017-05-20T07:50:49.649Z,820
2017-05-20T07:51:49.702Z,1460
2017-05-20T07:52:49.753Z,2530
2017-05-20T07:53:49.775Z,1975
2017-05-20T07:54:49.826Z,1100
2017-05-20T07:55:49.852Z,2565
2017-05-20T07:56:49.897Z,750
2017-05-20T07:57:49.970Z,2610
2017-05-20T07:58:50.014Z,610
2017-05-20T07:59:50.015Z,600
2017-05-20T08:00:50.075Z,2590
2017-05-20T08:01:50.122Z,1405
2017-05-20T08:02:50.161Z,2645
2017-05-20T08:03:50.190Z,2560
2017-05-20T08:04:50.239Z,2680
2017-05-20T08:05:50.276Z,835
2017-05-20T08:06:50.339Z,730
2017-05-20T08:07:50.380Z,925
2017-05-20T08:08:50.426Z,675
2017-05-20T08:09:50.472Z,700
2017-05-20T08:10:50.499Z,1995
2017-05-20T08:11:50.573Z,1260
2017-05-20T08:12:50.597Z,835
2017-05-20T08:13:50.640Z,690
2017-05-20T08:14:50.691Z,735
2017-05-20T08:15:50.739Z,2685
2017-05-20T08:16:50.766Z,1020
2017-05-20T08:17:50.789Z,1070
2017-05-20T08:18:50.894Z,895
2017-05-20T08:19:50.852Z,705
2017-05-20T08:20:50.934Z,885
2017-05-20T08:21:50.980Z,935
2017-05-20T08:22:51.018Z,1855
2017-05-20T08:23:51.054Z,755
2017-05-20T08:24:51.102Z,515
2017-05-20T08:25:51.364Z,640
2017-05-20T08:26:51.172Z,585
2017-05-20T08:27:51.450Z,385
2017-05-20T08:28:51.283Z,360
2017-05-20T08:29:51.300Z,445
2017-05-20T08:30:51.298Z,530
2017-05-20T08:31:51.358Z,595
2017-05-20T08:32:51.436Z,690
2017-05-20T08:33:51.494Z,1600
2017-05-20T08:34:51.529Z,2925
2017-05-20T08:35:51.550Z,1000
2017-05-20T08:36:51.602Z,1730
2017-05-20T08:37:51.657Z,1005
2017-05-20T08:38:51.744Z,1460
2017-05-20T08:39:51.701Z,3050
2017-05-20T08:40:51.756Z,2670
2017-05-20T08:41:52.227Z,970
2017-05-20T08:42:51.852Z,785
2017-05-20T08:43:51.907Z,710
2017-05-20T08:44:51.928Z,830
2017-05-20T08:45:51.993Z,3040
2017-05-20T08:46:52.039Z,3185
2017-05-20T08:47:52.060Z,875
2017-05-20T08:48:52.064Z,720
2017-05-20T08:49:52.156Z,3135
2017-05-20T08:50:52.161Z,3255
2017-05-20T08:51:52.236Z,3350
2017-05-20T08:52:52.283Z,3210
2017-05-20T08:53:52.324Z,875
2017-05-20T08:54:52.366Z,790
2017-05-20T08:55:52.395Z,3355
2017-05-20T08:56:52.449Z,560
2017-05-20T08:57:52.868Z,3050
2017-05-20T08:59:44.329Z,3175
2017-05-20T09:00:08.662Z,3200
2017-05-20T09:01:08.710Z,3340
2017-05-20T09:02:08.765Z,1325
2017-05-20T09:03:08.836Z,3395
2017-05-20T09:04:08.851Z,3240
2017-05-20T09:05:48.860Z,2595
2017-05-20T09:07:53.715Z,680
2017-05-20T09:09:42.128Z,3480
2017-05-20T09:10:08.312Z,3560
2017-05-20T09:11:08.296Z,925
2017-05-20T09:12:08.400Z,3655
2017-05-20T09:13:08.410Z,3675
2017-05-20T09:14:08.459Z,3425
2017-05-20T09:15:08.498Z,1705
2017-05-20T09:16:08.560Z,1230
2017-05-20T09:17:08.531Z,1050
2017-05-20T09:18:08.554Z,1345
2017-05-20T09:19:08.620Z,1460
2017-05-20T09:20:08.675Z,1190
2017-05-20T09:21:08.707Z,1045
2017-05-20T09:22:08.976Z,685
2017-05-20T09:23:08.814Z,630
2017-05-20T09:24:08.830Z,575
2017-05-20T09:25:08.928Z,1100
2017-05-20T09:26:08.930Z,560
2017-05-20T09:27:08.968Z,770
2017-05-20T09:28:09.038Z,1615
2017-05-20T09:29:09.091Z,1955
2017-05-20T09:30:09.238Z,1880
2017-05-20T09:31:09.165Z,745
2017-05-20T09:32:09.219Z,775
2017-05-20T09:33:09.266Z,1010
2017-05-20T09:34:09.263Z,2580
2017-05-20T09:35:09.344Z,2720
2017-05-20T09:36:09.369Z,2095
2017-05-20T09:37:09.411Z,1740
2017-05-20T09:38:09.470Z,1765
2017-05-20T09:39:09.517Z,1960
2017-05-20T09:40:09.538Z,2020
2017-05-20T09:41:09.580Z,2235
2017-05-20T09:42:09.648Z,870
2017-05-20T09:43:09.695Z,865
2017-05-20T09:44:09.740Z,805
2017-05-20T09:45:09.770Z,775
2017-05-20T09:46:09.809Z,690
2017-05-20T09:47:09.870Z,790
2017-05-20T09:48:09.877Z,800
2017-05-20T09:49:09.953Z,1130
2017-05-20T09:50:09.978Z,670
2017-05-20T09:51:10.041Z,625
2017-05-20T09:52:10.099Z,860
2017-05-20T09:53:10.128Z,1835
2017-05-20T09:54:10.208Z,875
2017-05-20T09:55:10.252Z,2525
2017-05-20T09:56:10.254Z,810
2017-05-20T09:57:10.269Z,910
2017-05-20T09:58:10.329Z,3005
2017-05-20T09:59:10.399Z,2485
2017-05-20T10:00:10.430Z,2880
2017-05-20T10:01:10.425Z,3075
2017-05-20T10:02:10.504Z,3005
2017-05-20T10:03:10.573Z,2840
2017-05-20T10:04:10.587Z,2175
2017-05-20T10:05:10.633Z,3070
2017-05-20T10:06:10.704Z,2905
2017-05-20T10:07:10.727Z,1170
2017-05-20T10:08:10.819Z,770
2017-05-20T10:09:10.807Z,605
2017-05-20T10:10:10.901Z,495
2017-05-20T10:11:10.875Z,435
2017-05-20T10:12:10.912Z,380
2017-05-20T10:13:11.006Z,355
2017-05-20T10:14:11.054Z,345
2017-05-20T10:15:11.084Z,380
2017-05-20T10:16:11.140Z,425
2017-05-20T10:17:11.181Z,530
2017-05-20T10:18:11.204Z,615
2017-05-20T10:19:11.256Z,775
2017-05-20T10:20:11.285Z,780
2017-05-20T10:21:11.339Z,700
2017-05-20T10:22:11.386Z,630
2017-05-20T10:23:11.440Z,1010
2017-05-20T10:24:11.484Z,2485
2017-05-20T10:25:11.552Z,1370
2017-05-20T10:26:11.563Z,1375
2017-05-20T10:27:11.566Z,1045
2017-05-20T10:28:11.663Z,3175
2017-05-20T10:29:11.701Z,1085
2017-05-20T10:30:11.713Z,870
2017-05-20T10:31:11.778Z,740
2017-05-20T10:32:11.817Z,1060
2017-05-20T10:33:11.846Z,540
2017-05-20T10:34:11.901Z,885
2017-05-20T10:35:11.918Z,795
2017-05-20T10:36:11.980Z,1535
2017-05-20T10:37:12.018Z,760
2017-05-20T10:38:12.054Z,610
2017-05-20T10:39:12.097Z,530
2017-05-20T10:40:12.119Z,540
2017-05-20T10:41:12.184Z,600
2017-05-20T10:42:12.189Z,2375
2017-05-20T10:43:12.269Z,2060
2017-05-20T10:44:12.278Z,1270
2017-05-20T10:45:12.349Z,895
2017-05-20T10:46:12.384Z,710
2017-05-20T10:47:12.424Z,590
2017-05-20T10:48:12.468Z,475
2017-05-20T10:49:12.520Z,460
2017-05-20T10:50:12.562Z,435
2017-05-20T10:51:12.606Z,495
2017-05-20T10:52:12.650Z,890
2017-05-20T10:53:12.682Z,580
2017-05-20T10:54:12.680Z,495
2017-05-20T10:55:12.752Z,420
2017-05-20T10:56:12.802Z,400
2017-05-20T10:57:12.820Z,425
2017-05-20T10:58:12.865Z,415
2017-05-20T10:59:12.924Z,440
2017-05-20T11:00:12.968Z,595
2017-05-20T11:01:12.977Z,645
2017-05-20T11:02:13.019Z,690
2017-05-20T11:03:13.062Z,715
2017-05-20T11:04:13.102Z,760
2017-05-20T11:05:13.177Z,710
2017-05-20T11:06:13.206Z,655
2017-05-20T11:07:13.234Z,600
2017-05-20T11:08:13.334Z,560
2017-05-20T11:09:13.304Z,515
2017-05-20T11:10:13.366Z,435
2017-05-20T11:11:13.534Z,410
2017-05-20T11:12:13.445Z,390
2017-05-20T11:13:13.483Z,435
2017-05-20T11:14:13.515Z,515
2017-05-20T11:15:13.621Z,620
2017-05-20T11:16:13.593Z,650
2017-05-20T11:17:13.644Z,700
2017-05-20T11:18:13.677Z,665
2017-05-20T11:19:13.695Z,630
2017-05-20T11:20:13.784Z,555
2017-05-20T11:21:13.808Z,545
2017-05-20T11:22:13.842Z,510
2017-05-20T11:23:13.885Z,480
2017-05-20T11:24:13.920Z,420
2017-05-20T11:25:14.085Z,520
2017-05-20T11:26:13.976Z,495
2017-05-20T11:27:14.043Z,500
2017-05-20T11:28:14.076Z,580
2017-05-20T11:29:14.123Z,675
2017-05-20T11:30:14.236Z,740
2017-05-20T11:31:14.194Z,780
2017-05-20T11:32:14.226Z,780
2017-05-20T11:33:14.281Z,815
2017-05-20T11:34:14.303Z,865
2017-05-20T11:35:14.454Z,850
2017-05-20T11:36:14.383Z,870
2017-05-20T11:37:14.443Z,930
2017-05-20T11:38:14.478Z,920
2017-05-20T11:39:14.498Z,890
2017-05-20T11:40:14.636Z,875
2017-05-20T11:41:14.583Z,855
2017-05-20T11:42:14.632Z,845
2017-05-20T11:43:14.658Z,755
2017-05-20T11:44:14.719Z,720
2017-05-20T11:45:14.752Z,700
2017-05-20T11:46:14.807Z,615
2017-05-20T11:47:14.823Z,625
2017-05-20T11:48:14.852Z,640
2017-05-20T11:49:14.983Z,655
2017-05-20T11:50:14.951Z,650
2017-05-20T11:51:14.996Z,655
2017-05-20T11:52:15.038Z,680
2017-05-20T11:53:15.079Z,735
2017-05-20T11:54:15.083Z,765
2017-05-20T11:55:15.142Z,780
2017-05-20T11:56:15.193Z,740
2017-05-20T11:57:15.252Z,640
2017-05-20T11:58:15.284Z,600
2017-05-20T11:59:15.315Z,585
2017-05-20T12:00:15.587Z,605
2017-05-20T12:01:15.423Z,630
2017-05-20T12:02:15.441Z,675
2017-05-20T12:03:15.461Z,705
2017-05-20T12:04:15.529Z,720
2017-05-20T12:05:15.545Z,745
2017-05-20T12:06:15.594Z,785
2017-05-20T12:07:15.637Z,755
2017-05-20T12:08:15.677Z,710
2017-05-20T12:09:15.714Z,625
2017-05-20T12:10:15.756Z,575
2017-05-20T12:11:15.785Z,545
2017-05-20T12:12:15.841Z,520
2017-05-20T12:13:15.856Z,515
2017-05-20T12:14:15.906Z,525
2017-05-20T12:15:15.952Z,565
2017-05-20T12:16:16.020Z,550
2017-05-20T12:17:16.034Z,530
2017-05-20T12:18:16.054Z,500
2017-05-20T12:19:16.091Z,525
2017-05-20T12:20:16.154Z,490
2017-05-20T12:21:16.205Z,495
2017-05-20T12:22:16.232Z,490
2017-05-20T12:23:16.274Z,515
2017-05-20T12:24:16.315Z,535
2017-05-20T12:25:16.348Z,535
2017-05-20T12:26:16.396Z,555
2017-05-20T12:27:16.411Z,615
2017-05-20T12:28:16.483Z,635
2017-05-20T12:29:16.480Z,620
2017-05-20T12:30:16.525Z,600
2017-05-20T12:31:16.662Z,595
2017-05-20T12:32:16.634Z,595
2017-05-20T12:33:16.662Z,605
2017-05-20T12:34:16.700Z,620
2017-05-20T12:35:16.762Z,600
2017-05-20T12:36:16.780Z,570
2017-05-20T12:37:16.887Z,570
2017-05-20T12:38:16.920Z,560
2017-05-20T12:39:16.885Z,545
2017-05-20T12:40:16.941Z,560
2017-05-20T12:41:16.991Z,585
2017-05-20T12:42:17.025Z,585
2017-05-20T12:43:17.074Z,585
2017-05-20T12:44:17.102Z,580
2017-05-20T12:45:17.127Z,580
2017-05-20T12:46:17.177Z,605
2017-05-20T12:47:17.234Z,635
2017-05-20T12:48:17.481Z,665
2017-05-20T12:49:17.305Z,670
2017-05-20T12:50:17.324Z,680
2017-05-20T12:51:17.381Z,685
2017-05-20T12:52:17.406Z,670
2017-05-20T12:53:17.453Z,650
2017-05-20T12:54:17.512Z,535
2017-05-20T12:55:17.597Z,475
2017-05-20T12:56:17.588Z,510
2017-05-20T12:57:17.628Z,500
2017-05-20T12:58:17.628Z,480
2017-05-20T12:59:17.721Z,485
2017-05-20T13:00:18.972Z,450
2017-05-20T13:01:17.782Z,425
2017-05-20T13:02:17.857Z,445
2017-05-20T13:03:17.862Z,455
2017-05-20T13:04:17.902Z,460
2017-05-20T13:05:17.950Z,460
2017-05-20T13:06:17.977Z,430
2017-05-20T13:07:18.012Z,410
2017-05-20T13:08:18.035Z,395
2017-05-20T13:09:18.108Z,355
2017-05-20T13:10:18.149Z,345
2017-05-20T13:11:19.616Z,325
2017-05-20T13:12:18.228Z,335
2017-05-20T13:13:18.248Z,350
2017-05-20T13:14:18.307Z,375
2017-05-20T13:15:18.347Z,385
2017-05-20T13:16:18.358Z,420
2017-05-20T13:17:18.401Z,440
2017-05-20T13:18:18.461Z,445
2017-05-20T13:19:18.485Z,460
2017-05-20T13:20:18.513Z,470
2017-05-20T13:21:18.577Z,465
2017-05-20T13:22:18.608Z,455
2017-05-20T13:23:18.649Z,455
2017-05-20T13:24:18.684Z,430
2017-05-20T13:25:18.720Z,410
2017-05-20T13:26:18.761Z,390
2017-05-20T13:27:18.766Z,370
2017-05-20T13:28:18.852Z,370
2017-05-20T13:29:18.865Z,355
2017-05-20T13:30:18.927Z,345
2017-05-20T13:31:18.958Z,345
2017-05-20T13:32:18.983Z,345
2017-05-20T13:33:19.038Z,345
2017-05-20T13:34:19.082Z,335
2017-05-20T13:35:19.121Z,340
2017-05-20T13:36:19.161Z,330
2017-05-20T13:37:19.184Z,340
2017-05-20T13:38:19.250Z,350
2017-05-20T13:39:19.241Z,350
2017-05-20T13:40:19.288Z,345
2017-05-20T13:41:19.377Z,350
2017-05-20T13:42:19.379Z,340
2017-05-20T13:43:19.422Z,335
2017-05-20T13:44:19.469Z,340
2017-05-20T13:45:19.493Z,335
2017-05-20T13:46:19.548Z,330
2017-05-20T13:47:19.595Z,335
2017-05-20T13:48:19.683Z,320
2017-05-20T13:49:19.660Z,285
2017-05-20T13:50:19.700Z,275
2017-05-20T13:51:19.727Z,260
2017-05-20T13:52:19.784Z,260
2017-05-20T13:53:19.814Z,275
2017-05-20T13:54:19.868Z,295
2017-05-20T13:55:19.891Z,305
2017-05-20T13:56:19.928Z,320
2017-05-20T13:57:19.962Z,345
2017-05-20T13:58:20.017Z,365
2017-05-20T13:59:20.054Z,360
2017-05-20T14:00:20.278Z,370
2017-05-20T14:01:20.119Z,365
2017-05-20T14:02:20.193Z,380
2017-05-20T14:03:20.202Z,380